sensor_id;sensor_type;location;lat;lon;timestamp;pressure;altitude;pressure_sealevel;temperature;humidity
3590;BME280;1809;48.470;9.226;2022-12-24T00:01:59;157467.00;;;10.85;100.00
3590;BME280;1809;48.470;9.226;2022-12-24T00:04:24;157461.78;;;10.83;100.00
3590;BME280;1809;48.470;9.226;2022-12-24T00:06:50;157474.84;;;10.88;100.00
3590;BME280;1809;48.470;9.226;2022-12-24T00:09:15;157451.31;;;10.78;100.00
3590;BME280;1809;48.470;9.226;2022-12-24T00:11:40;157439.59;;;10.74;100.00
3590;BME280;1809;48.470;9.226;2022-12-24T00:14:06;157456.53;;;10.80;100.00
3590;BME280;1809;48.470;9.226;2022-12-24T00:16:31;157464.38;;;10.84;100.00
3590;BME280;1809;48.470;9.226;2022-12-24T00:18:56;157453.94;;;10.79;100.00
3590;BME280;1809;48.470;9.226;2022-12-24T00:21:22;157467.00;;;10.85;100.00
3590;BME280;1809;48.470;9.226;2022-12-24T00:23:47;157448.69;;;10.77;100.00
3590;BME280;1809;48.470;9.226;2022-12-24T00:26:12;157459.16;;;10.82;100.00
3590;BME280;1809;48.470;9.226;2022-12-24T00:28:38;157450.00;;;10.78;100.00
3590;BME280;1809;48.470;9.226;2022-12-24T00:31:13;157451.31;;;10.78;100.00
3590;BME280;1809;48.470;9.226;2022-12-24T00:33:38;157430.44;;;10.70;100.00
3590;BME280;1809;48.470;9.226;2022-12-24T00:36:04;157414.75;;;10.64;100.00
3590;BME280;1809;48.470;9.226;2022-12-24T00:38:30;157414.75;;;10.64;100.00
3590;BME280;1809;48.470;9.226;2022-12-24T00:41:00;157440.84;;;10.74;100.00
3590;BME280;1809;48.470;9.226;2022-12-24T00:43:26;157469.50;;;10.87;100.00
3590;BME280;1809;48.470;9.226;2022-12-24T00:45:51;155724.16;;;10.85;100.00
3590;BME280;1809;48.470;9.226;2022-12-24T00:48:16;155363.09;;;10.80;100.00
3590;BME280;1809;48.470;9.226;2022-12-24T00:50:42;156050.38;;;10.76;100.00
3590;BME280;1809;48.470;9.226;2022-12-24T00:53:07;156359.66;;;10.61;100.00
3590;BME280;1809;48.470;9.226;2022-12-24T00:55:32;156347.94;;;10.57;100.00
3590;BME280;1809;48.470;9.226;2022-12-24T00:57:58;157062.50;;;10.64;100.00
3590;BME280;1809;48.470;9.226;2022-12-24T01:00:23;156711.69;;;10.63;100.00
3590;BME280;1809;48.470;9.226;2022-12-24T01:02:48;156014.09;;;10.62;100.00
3590;BME280;1809;48.470;9.226;2022-12-24T01:05:14;153926.06;;;10.62;100.00
3590;BME280;1809;48.470;9.226;2022-12-24T01:07:41;153898.00;;;10.51;100.00
3590;BME280;1809;48.470;9.226;2022-12-24T01:10:09;154254.81;;;10.55;100.00
3590;BME280;1809;48.470;9.226;2022-12-24T01:12:35;154254.81;;;10.55;100.00
3590;BME280;1809;48.470;9.226;2022-12-24T01:15:00;153903.09;;;10.53;100.00
3590;BME280;1809;48.470;9.226;2022-12-24T01:17:26;153908.22;;;10.55;100.00
3590;BME280;1809;48.470;9.226;2022-12-24T01:19:51;152853.38;;;10.51;100.00
3590;BME280;1809;48.470;9.226;2022-12-24T01:22:17;152544.88;;;10.66;100.00
3590;BME280;1809;48.470;9.226;2022-12-24T01:24:42;149448.34;;;10.79;100.00
3590;BME280;1809;48.470;9.226;2022-12-24T01:27:08;147735.47;;;10.90;100.00
3590;BME280;1809;48.470;9.226;2022-12-24T01:29:33;145986.50;;;10.85;100.00
3590;BME280;1809;48.470;9.226;2022-12-24T01:31:59;144956.91;;;10.90;100.00
3590;BME280;1809;48.470;9.226;2022-12-24T01:34:24;145272.81;;;10.76;100.00
3590;BME280;1809;48.470;9.226;2022-12-24T01:36:50;145622.34;;;10.77;100.00
3590;BME280;1809;48.470;9.226;2022-12-24T01:39:15;143592.19;;;11.00;100.00
3590;BME280;1809;48.470;9.226;2022-12-24T01:41:40;140476.56;;;11.03;100.00
3590;BME280;1809;48.470;9.226;2022-12-24T01:44:32;140129.78;;;11.03;100.00
3590;BME280;1809;48.470;9.226;2022-12-24T01:49:28;139459.34;;;11.13;100.00
3590;BME280;1809;48.470;9.226;2022-12-24T01:51:58;139110.28;;;11.12;100.00
3590;BME280;1809;48.470;9.226;2022-12-24T01:54:30;139787.66;;;11.05;100.00
3590;BME280;1809;48.470;9.226;2022-12-24T01:57:15;140143.69;;;11.09;100.00
3590;BME280;1809;48.470;9.226;2022-12-24T01:59:43;140853.72;;;11.16;100.00
3590;BME280;1809;48.470;9.226;2022-12-24T02:02:09;141184.31;;;11.09;100.00
3590;BME280;1809;48.470;9.226;2022-12-24T02:04:41;140842.09;;;11.11;100.00
3590;BME280;1809;48.470;9.226;2022-12-24T02:07:08;141198.31;;;11.15;100.00
3590;BME280;1809;48.470;9.226;2022-12-24T02:09:34;141183.16;;;11.08;100.00
3590;BME280;1809;48.470;9.226;2022-12-24T02:12:01;142218.16;;;11.06;100.00
3590;BME280;1809;48.470;9.226;2022-12-24T02:14:27;143929.81;;;10.96;100.00
3590;BME280;1809;48.470;9.226;2022-12-24T02:28:06;150453.78;;;10.64;100.00
3590;BME280;1809;48.470;9.226;2022-12-24T02:30:47;151143.94;;;10.62;100.00
3590;BME280;1809;48.470;9.226;2022-12-24T02:33:31;151831.72;;;10.59;100.00
3590;BME280;1809;48.470;9.226;2022-12-24T02:36:16;152499.34;;;10.48;100.00
3590;BME280;1809;48.470;9.226;2022-12-24T02:38:59;153194.78;;;10.48;100.00
3590;BME280;1809;48.470;9.226;2022-12-24T02:41:32;153552.75;;;10.52;100.00
3590;BME280;1809;48.470;9.226;2022-12-24T02:44:21;153901.81;;;10.53;100.00
3590;BME280;1809;48.470;9.226;2022-12-24T02:46:49;154250.97;;;10.53;100.00
3590;BME280;1809;48.470;9.226;2022-12-24T02:49:16;153945.25;;;10.70;100.00
3590;BME280;1809;48.470;9.226;2022-12-24T02:51:41;153225.28;;;10.60;100.00
3590;BME280;1809;48.470;9.226;2022-12-24T02:54:07;152227.41;;;10.78;100.00
3590;BME280;1809;48.470;9.226;2022-12-24T02:57:04;150158.47;;;10.86;100.00
3590;BME280;1809;48.470;9.226;2022-12-24T03:08:28;146677.44;;;10.83;100.00
3590;BME280;1809;48.470;9.226;2022-12-24T03:11:06;145651.34;;;10.90;100.00
3590;BME280;1809;48.470;9.226;2022-12-24T03:13:32;143920.28;;;10.92;100.00
3590;BME280;1809;48.470;9.226;2022-12-24T03:15:58;142545.13;;;10.97;100.00
3590;BME280;1809;48.470;9.226;2022-12-24T03:18:25;141517.19;;;11.03;100.00
3590;BME280;1809;48.470;9.226;2022-12-24T03:20:57;140467.31;;;10.99;100.00
3590;BME280;1809;48.470;9.226;2022-12-24T03:23:23;141507.84;;;10.99;100.00
3590;BME280;1809;48.470;9.226;2022-12-24T03:25:49;141511.34;;;11.00;100.00
3590;BME280;1809;48.470;9.226;2022-12-24T03:28:16;141500.81;;;10.96;100.00
3590;BME280;1809;48.470;9.226;2022-12-24T03:30:45;141844.19;;;10.94;100.00
3590;BME280;1809;48.470;9.226;2022-12-24T03:33:12;142206.41;;;11.01;100.00
3590;BME280;1809;48.470;9.226;2022-12-24T03:35:38;142199.34;;;10.98;100.00
3590;BME280;1809;48.470;9.226;2022-12-24T03:38:03;142232.28;;;11.12;100.00
3590;BME280;1809;48.470;9.226;2022-12-24T03:40:29;140861.88;;;11.19;100.00
3590;BME280;1809;48.470;9.226;2022-12-24T03:42:55;139457.03;;;11.12;100.00
3590;BME280;1809;48.470;9.226;2022-12-24T03:45:20;139810.75;;;11.15;100.00
3590;BME280;1809;48.470;9.226;2022-12-24T03:47:45;139475.50;;;11.20;100.00
3590;BME280;1809;48.470;9.226;2022-12-24T03:50:11;138445.50;;;11.24;100.00
3590;BME280;1809;48.470;9.226;2022-12-24T03:52:36;137762.34;;;11.29;100.00
3590;BME280;1809;48.470;9.226;2022-12-24T03:55:02;138099.91;;;11.25;100.00
3590;BME280;1809;48.470;9.226;2022-12-24T03:57:27;138444.34;;;11.24;100.00
3590;BME280;1809;48.470;9.226;2022-12-24T03:59:52;139482.44;;;11.23;100.00
3590;BME280;1809;48.470;9.226;2022-12-24T04:02:18;140507.97;;;11.16;100.00
3590;BME280;1809;48.470;9.226;2022-12-24T04:04:43;141904.06;;;11.20;100.00
3590;BME280;1809;48.470;9.226;2022-12-24T04:07:08;142587.59;;;11.15;100.00
3590;BME280;1809;48.470;9.226;2022-12-24T04:09:34;143606.47;;;11.06;100.00
3590;BME280;1809;48.470;9.226;2022-12-24T04:11:59;145305.28;;;10.90;100.00
3590;BME280;1809;48.470;9.226;2022-12-24T04:14:24;145996.19;;;10.89;100.00
3590;BME280;1809;48.470;9.226;2022-12-24T04:16:50;145278.81;;;10.79;100.00
3590;BME280;1809;48.470;9.226;2022-12-24T04:19:15;146977.25;;;10.63;100.00
3590;BME280;1809;48.470;9.226;2022-12-24T04:21:41;148027.69;;;10.67;100.00
3590;BME280;1809;48.470;9.226;2022-12-24T04:24:06;146989.41;;;10.68;100.00
3590;BME280;1809;48.470;9.226;2022-12-24T04:26:31;147326.97;;;10.64;100.00
3590;BME280;1809;48.470;9.226;2022-12-24T04:28:57;147658.34;;;10.58;100.00
3590;BME280;1809;48.470;9.226;2022-12-24T04:31:22;148046.06;;;10.74;100.00
3590;BME280;1809;48.470;9.226;2022-12-24T04:33:50;145988.94;;;10.86;100.00
3590;BME280;1809;48.470;9.226;2022-12-24T04:36:16;143230.88;;;10.94;100.00
3590;BME280;1809;48.470;9.226;2022-12-24T04:38:43;141479.69;;;10.87;100.00
3590;BME280;1809;48.470;9.226;2022-12-24T04:41:19;140118.19;;;10.98;100.00
3590;BME280;1809;48.470;9.226;2022-12-24T04:43:45;138394.00;;;11.02;100.00
3590;BME280;1809;48.470;9.226;2022-12-24T04:46:13;137364.53;;;11.06;100.00
3590;BME280;1809;48.470;9.226;2022-12-24T04:48:40;137005.53;;;11.01;100.00
3590;BME280;1809;48.470;9.226;2022-12-24T04:51:06;137029.34;;;11.11;100.00
3590;BME280;1809;48.470;9.226;2022-12-24T04:53:32;135302.69;;;11.14;100.00
3590;BME280;1809;48.470;9.226;2022-12-24T04:55:58;134616.69;;;11.17;100.00
3590;BME280;1809;48.470;9.226;2022-12-24T04:58:23;133918.56;;;11.14;100.00
3590;BME280;1809;48.470;9.226;2022-12-24T05:00:48;134257.06;;;11.11;100.00
3590;BME280;1809;48.470;9.226;2022-12-24T05:03:14;135596.38;;;10.90;100.00
3590;BME280;1809;48.470;9.226;2022-12-24T05:05:39;137338.41;;;10.95;100.00
3590;BME280;1809;48.470;9.226;2022-12-24T05:08:04;137684.88;;;10.95;100.00
3590;BME280;1809;48.470;9.226;2022-12-24T05:10:30;137688.28;;;10.96;100.00
3590;BME280;1809;48.470;9.226;2022-12-24T05:12:56;139060.81;;;10.90;100.00
3590;BME280;1809;48.470;9.226;2022-12-24T05:15:21;139073.50;;;10.96;100.00
3590;BME280;1809;48.470;9.226;2022-12-24T05:17:46;140451.03;;;10.92;100.00
3590;BME280;1809;48.470;9.226;2022-12-24T05:20:11;142523.91;;;10.88;100.00
3590;BME280;1809;48.470;9.226;2022-12-24T05:22:37;143216.66;;;10.88;100.00
3590;BME280;1809;48.470;9.226;2022-12-24T05:25:20;144962.91;;;10.92;100.00
3590;BME280;1809;48.470;9.226;2022-12-24T05:28:04;144968.91;;;10.95;100.00
3590;BME280;1809;48.470;9.226;2022-12-24T05:30:30;145334.16;;;11.02;100.00
3590;BME280;1809;48.470;9.226;2022-12-24T05:32:55;146022.78;;;11.00;100.00
3590;BME280;1809;48.470;9.226;2022-12-24T05:35:20;144990.50;;;11.04;100.00
3590;BME280;1809;48.470;9.226;2022-12-24T05:37:46;145310.13;;;10.92;100.00
3590;BME280;1809;48.470;9.226;2022-12-24T05:40:11;145671.84;;;10.98;100.00
3590;BME280;1809;48.470;9.226;2022-12-24T05:42:36;144990.50;;;11.04;100.00
3590;BME280;1809;48.470;9.226;2022-12-24T05:45:02;145680.28;;;11.02;100.00
3590;BME280;1809;48.470;9.226;2022-12-24T05:47:27;145682.69;;;11.03;100.00
3590;BME280;1809;48.470;9.226;2022-12-24T05:49:53;146001.00;;;10.91;100.00
3590;BME280;1809;48.470;9.226;2022-12-24T05:52:18;147019.88;;;10.81;100.00
3590;BME280;1809;48.470;9.226;2022-12-24T05:54:43;148044.88;;;10.74;100.00
3590;BME280;1809;48.470;9.226;2022-12-24T05:57:09;148745.91;;;10.76;100.00
3590;BME280;1809;48.470;9.226;2022-12-24T05:59:34;147339.16;;;10.69;100.00
3590;BME280;1809;48.470;9.226;2022-12-24T06:01:59;148349.22;;;10.56;100.00
3590;BME280;1809;48.470;9.226;2022-12-24T06:04:25;148373.84;;;10.66;100.00
3590;BME280;1809;48.470;9.226;2022-12-24T06:06:50;148024.00;;;10.65;100.00
3590;BME280;1809;48.470;9.226;2022-12-24T06:09:15;148011.75;;;10.60;100.00
3590;BME280;1809;48.470;9.226;2022-12-24T06:11:41;148005.63;;;10.58;100.00
3590;BME280;1809;48.470;9.226;2022-12-24T06:14:06;147661.97;;;10.59;100.00
3590;BME280;1809;48.470;9.226;2022-12-24T06:16:32;147666.91;;;10.61;100.00
3590;BME280;1809;48.470;9.226;2022-12-24T06:18:57;147653.41;;;10.56;100.00
3590;BME280;1809;48.470;9.226;2022-12-24T06:21:23;148005.63;;;10.58;100.00
3590;BME280;1809;48.470;9.226;2022-12-24T06:23:48;146946.81;;;10.51;100.00
3590;BME280;1809;48.470;9.226;2022-12-24T06:26:16;146943.13;;;10.49;100.00
3590;BME280;1809;48.470;9.226;2022-12-24T06:28:42;145536.75;;;10.42;100.00
3590;BME280;1809;48.470;9.226;2022-12-24T06:31:11;144815.28;;;10.30;100.00
3590;BME280;1809;48.470;9.226;2022-12-24T06:33:37;144497.19;;;10.42;100.00
3590;BME280;1809;48.470;9.226;2022-12-24T06:36:06;143104.06;;;10.40;100.00
3590;BME280;1809;48.470;9.226;2022-12-24T06:38:31;142763.25;;;10.42;100.00
3590;BME280;1809;48.470;9.226;2022-12-24T06:40:57;142079.28;;;10.46;100.00
3590;BME280;1809;48.470;9.226;2022-12-24T06:43:22;141040.63;;;10.47;100.00
3590;BME280;1809;48.470;9.226;2022-12-24T06:45:47;140689.44;;;10.45;100.00
3590;BME280;1809;48.470;9.226;2022-12-24T06:48:14;141697.44;;;10.31;100.00
3590;BME280;1809;48.470;9.226;2022-12-24T06:50:40;142041.69;;;10.30;100.00
3590;BME280;1809;48.470;9.226;2022-12-24T06:53:05;142392.97;;;10.32;100.00
3590;BME280;1809;48.470;9.226;2022-12-24T06:55:31;141698.63;;;10.32;100.00
3590;BME280;1809;48.470;9.226;2022-12-24T06:57:56;142038.13;;;10.29;100.00
3590;BME280;1809;48.470;9.226;2022-12-24T07:00:22;142047.56;;;10.33;100.00
3590;BME280;1809;48.470;9.226;2022-12-24T07:02:47;141713.88;;;10.38;100.00
3590;BME280;1809;48.470;9.226;2022-12-24T07:05:13;139641.97;;;10.41;100.00
3590;BME280;1809;48.470;9.226;2022-12-24T07:07:42;138907.84;;;10.23;100.00
3590;BME280;1809;48.470;9.226;2022-12-24T07:10:11;140620.72;;;10.15;100.00
3590;BME280;1809;48.470;9.226;2022-12-24T07:12:37;140604.41;;;10.08;100.00
3590;BME280;1809;48.470;9.226;2022-12-24T07:15:03;140943.72;;;10.05;100.00
3590;BME280;1809;48.470;9.226;2022-12-24T07:17:28;139251.75;;;10.22;100.00
3590;BME280;1809;48.470;9.226;2022-12-24T07:19:53;136141.41;;;10.24;100.00
3590;BME280;1809;48.470;9.226;2022-12-24T07:22:19;134432.06;;;10.33;100.00
3590;BME280;1809;48.470;9.226;2022-12-24T07:24:44;133755.91;;;10.40;100.00
3590;BME280;1809;48.470;9.226;2022-12-24T07:27:09;133056.69;;;10.37;100.00
3590;BME280;1809;48.470;9.226;2022-12-24T07:29:35;132027.25;;;10.40;100.00
3590;BME280;1809;48.470;9.226;2022-12-24T07:32:00;131329.50;;;10.37;100.00
3590;BME280;1809;48.470;9.226;2022-12-24T07:34:25;130986.16;;;10.38;100.00
3590;BME280;1809;48.470;9.226;2022-12-24T07:36:51;131323.00;;;10.34;100.00
3590;BME280;1809;48.470;9.226;2022-12-24T07:39:16;131319.78;;;10.33;100.00
3590;BME280;1809;48.470;9.226;2022-12-24T07:41:41;131670.75;;;10.35;100.00
3590;BME280;1809;48.470;9.226;2022-12-24T07:44:11;132007.63;;;10.31;100.00
3590;BME280;1809;48.470;9.226;2022-12-24T07:46:37;131675.09;;;10.37;100.00
3590;BME280;1809;48.470;9.226;2022-12-24T07:49:02;129614.97;;;10.43;100.00
3590;BME280;1809;48.470;9.226;2022-12-24T07:51:27;128916.78;;;10.40;100.00
3590;BME280;1809;48.470;9.226;2022-12-24T07:53:53;126826.44;;;10.31;100.00
3590;BME280;1809;48.470;9.226;2022-12-24T07:56:18;128538.53;;;10.24;100.00
3590;BME280;1809;48.470;9.226;2022-12-24T07:58:43;129249.31;;;10.34;100.00
3590;BME280;1809;48.470;9.226;2022-12-24T08:01:09;126534.66;;;10.56;100.00
3590;BME280;1809;48.470;9.226;2022-12-24T08:03:34;123763.94;;;10.51;100.00
3590;BME280;1809;48.470;9.226;2022-12-24T08:06:00;124459.97;;;10.54;100.00
3590;BME280;1809;48.470;9.226;2022-12-24T08:08:25;124784.38;;;10.44;100.00
3590;BME280;1809;48.470;9.226;2022-12-24T08:10:51;127178.91;;;10.34;100.00
3590;BME280;1809;48.470;9.226;2022-12-24T08:13:16;129586.09;;;10.30;100.00
3590;BME280;1809;48.470;9.226;2022-12-24T08:15:42;130648.19;;;10.42;100.00
3590;BME280;1809;48.470;9.226;2022-12-24T08:18:08;130988.34;;;10.39;100.00
3590;BME280;1809;48.470;9.226;2022-12-24T08:20:33;131693.63;;;10.46;100.00
3590;BME280;1809;48.470;9.226;2022-12-24T08:23:01;131694.69;;;10.46;100.00
3590;BME280;1809;48.470;9.226;2022-12-24T08:25:26;131364.25;;;10.53;100.00
3590;BME280;1809;48.470;9.226;2022-12-24T08:27:51;127632.59;;;10.86;100.00
3590;BME280;1809;48.470;9.226;2022-12-24T08:30:17;122452.25;;;10.85;100.00
3590;BME280;1809;48.470;9.226;2022-12-24T08:32:42;122451.25;;;10.85;100.00
3590;BME280;1809;48.470;9.226;2022-12-24T08:35:07;121430.56;;;10.92;100.00
3590;BME280;1809;48.470;9.226;2022-12-24T08:37:33;120382.09;;;10.85;100.00
3590;BME280;1809;48.470;9.226;2022-12-24T08:39:58;121428.53;;;10.91;100.00
3590;BME280;1809;48.470;9.226;2022-12-24T08:42:23;122147.59;;;11.05;100.00
3590;BME280;1809;48.470;9.226;2022-12-24T08:44:49;121120.63;;;11.09;100.00
3590;BME280;1809;48.470;9.226;2022-12-24T08:47:14;118729.16;;;11.21;100.00
3590;BME280;1809;48.470;9.226;2022-12-24T08:49:39;116668.69;;;11.25;100.00
3590;BME280;1809;48.470;9.226;2022-12-24T08:52:05;118079.53;;;11.42;100.00
3590;BME280;1809;48.470;9.226;2022-12-24T08:54:31;114961.19;;;11.33;100.00
3590;BME280;1809;48.470;9.226;2022-12-24T08:56:56;117380.22;;;11.37;100.00
3590;BME280;1809;48.470;9.226;2022-12-24T08:59:21;117724.06;;;11.36;100.00
3590;BME280;1809;48.470;9.226;2022-12-24T09:01:47;119115.22;;;11.42;100.00
3590;BME280;1809;48.470;9.226;2022-12-24T09:04:12;117784.19;;;11.67;100.00
3590;BME280;1809;48.470;9.226;2022-12-24T09:06:37;114025.44;;;11.85;100.00
3590;BME280;1809;48.470;9.226;2022-12-24T09:09:04;110602.00;;;11.98;100.00
3590;BME280;1809;48.470;9.226;2022-12-24T09:11:29;107913.28;;;12.35;100.00
3590;BME280;1809;48.470;9.226;2022-12-24T09:13:55;102065.59;;;12.36;100.00
3590;BME280;1809;48.470;9.226;2022-12-24T09:16:20;101746.84;;;12.51;100.00
3590;BME280;1809;48.470;9.226;2022-12-24T09:18:46;94878.19;;;12.52;100.00
3590;BME280;1809;48.470;9.226;2022-12-24T09:21:13;92812.94;;;12.48;100.00
3590;BME280;1809;48.470;9.226;2022-12-24T09:23:41;90400.56;;;12.39;100.00
3590;BME280;1809;48.470;9.226;2022-12-24T09:26:08;88667.38;;;12.25;100.00
3590;BME280;1809;48.470;9.226;2022-12-24T09:28:34;85929.88;;;12.25;100.00
3590;BME280;1809;48.470;9.226;2022-12-24T09:31:01;89005.44;;;12.22;100.00
3590;BME280;1809;48.470;9.226;2022-12-24T09:33:29;87633.88;;;12.20;100.00
3590;BME280;1809;48.470;9.226;2022-12-24T09:35:55;84223.03;;;12.28;100.00
3590;BME280;1809;48.470;9.226;2022-12-24T09:38:21;88321.38;;;12.22;100.00
3590;BME280;1809;48.470;9.226;2022-12-24T09:40:47;85581.47;;;12.21;100.00
3590;BME280;1809;48.470;9.226;2022-12-24T09:43:18;81141.22;;;12.24;100.00
3590;BME280;1809;48.470;9.226;2022-12-24T09:48:24;71924.16;;;12.20;100.00
3590;BME280;1809;48.470;9.226;2022-12-24T09:56:12;71932.94;;;12.27;100.00
3590;BME280;1809;48.470;9.226;2022-12-24T09:58:42;77040.00;;;12.21;100.00
3590;BME280;1809;48.470;9.226;2022-12-24T10:01:14;78409.06;;;12.24;100.00
3590;BME280;1809;48.470;9.226;2022-12-24T10:03:40;80454.72;;;12.21;100.00
3590;BME280;1809;48.470;9.226;2022-12-24T10:06:18;83170.72;;;12.08;100.00
3590;BME280;1809;48.470;9.226;2022-12-24T10:09:10;84862.69;;;11.96;100.00
3590;BME280;1809;48.470;9.226;2022-12-24T10:11:50;89301.09;;;11.90;100.00
3590;BME280;1809;48.470;9.226;2022-12-24T10:14:34;92056.25;;;12.00;100.00
3590;BME280;1809;48.470;9.226;2022-12-24T10:20:10;87647.47;;;12.30;100.00
3590;BME280;1809;48.470;9.226;2022-12-24T10:28:29;77101.59;;;12.70;100.00
3590;BME280;1809;48.470;9.226;2022-12-24T10:30:58;81188.28;;;12.60;100.00
3590;BME280;1809;48.470;9.226;2022-12-24T10:33:31;81540.13;;;12.67;100.00
3590;BME280;1809;48.470;9.226;2022-12-24T10:35:58;80177.22;;;12.71;100.00
3590;BME280;1809;48.470;9.226;2022-12-24T10:38:23;80526.31;;;12.76;100.00
3590;BME280;1809;48.470;9.226;2022-12-24T10:40:52;76768.84;;;12.77;100.00
3590;BME280;1809;48.470;9.226;2022-12-24T10:43:21;77112.91;;;12.79;100.00
3590;BME280;1809;48.470;9.226;2022-12-24T10:45:50;77104.75;;;12.73;100.00
3590;BME280;1809;48.470;9.226;2022-12-24T10:48:24;80176.56;;;12.70;100.00
3590;BME280;1809;48.470;9.226;2022-12-24T10:50:58;84627.22;;;12.73;100.00
3590;BME280;1809;48.470;9.226;2022-12-24T10:53:33;85975.53;;;12.58;100.00
3590;BME280;1809;48.470;9.226;2022-12-24T10:56:04;89746.16;;;12.60;100.00
3590;BME280;1809;48.470;9.226;2022-12-24T10:58:30;85990.31;;;12.69;100.00
3590;BME280;1809;48.470;9.226;2022-12-24T11:00:55;84617.56;;;12.66;100.00
3590;BME280;1809;48.470;9.226;2022-12-24T11:03:32;87009.81;;;12.63;100.00
3590;BME280;1809;48.470;9.226;2022-12-24T11:06:04;89078.25;;;12.72;100.00
3590;BME280;1809;48.470;9.226;2022-12-24T11:08:30;93178.00;;;12.62;100.00
3590;BME280;1809;48.470;9.226;2022-12-24T11:10:58;94907.72;;;12.71;100.00
3590;BME280;1809;48.470;9.226;2022-12-24T11:18:30;92180.63;;;12.83;100.00
3590;BME280;1809;48.470;9.226;2022-12-24T11:20:56;93894.19;;;12.82;100.00
3590;BME280;1809;48.470;9.226;2022-12-24T11:23:26;88764.56;;;12.92;100.00
3590;BME280;1809;48.470;9.226;2022-12-24T11:25:52;87383.69;;;12.85;100.00
3590;BME280;1809;48.470;9.226;2022-12-24T11:28:22;85691.31;;;13.00;100.00
3590;BME280;1809;48.470;9.226;2022-12-24T11:31:03;84683.25;;;13.14;100.00
3590;BME280;1809;48.470;9.226;2022-12-24T11:33:30;82964.38;;;13.09;100.00
3590;BME280;1809;48.470;9.226;2022-12-24T11:36:00;78523.63;;;13.14;100.00
3590;BME280;1809;48.470;9.226;2022-12-24T11:38:27;75787.69;;;13.13;100.00
3590;BME280;1809;48.470;9.226;2022-12-24T11:43:23;77853.22;;;13.25;100.00
3590;BME280;1809;48.470;9.226;2022-12-24T11:45:53;76833.34;;;13.29;100.00
3590;BME280;1809;48.470;9.226;2022-12-24T11:50:58;67981.50;;;13.51;100.00
3590;BME280;1809;48.470;9.226;2022-12-24T11:53:29;68649.72;;;13.38;100.00
3590;BME280;1809;48.470;9.226;2022-12-24T11:55:59;73418.72;;;13.31;100.00
3590;BME280;1809;48.470;9.226;2022-12-24T11:58:42;81963.00;;;13.28;100.00
3590;BME280;1809;48.470;9.226;2022-12-24T12:01:23;83666.13;;;13.22;100.00
3590;BME280;1809;48.470;9.226;2022-12-24T12:04:16;81269.16;;;13.21;100.00
3590;BME280;1809;48.470;9.226;2022-12-24T12:06:51;81264.50;;;13.18;100.00
3590;BME280;1809;48.470;9.226;2022-12-24T12:09:28;82973.19;;;13.16;100.00
3590;BME280;1809;48.470;9.226;2022-12-24T12:12:08;85696.22;;;13.04;100.00
3590;BME280;1809;48.470;9.226;2022-12-24T12:14:41;85367.66;;;13.14;100.00
3590;BME280;1809;48.470;9.226;2022-12-24T12:17:33;79208.13;;;13.15;100.00
3590;BME280;1809;48.470;9.226;2022-12-24T12:20:21;83983.91;;;13.04;100.00
3590;BME280;1809;48.470;9.226;2022-12-24T12:25:53;90460.47;;;12.80;100.00
3590;BME280;1809;48.470;9.226;2022-12-24T12:28:27;96969.66;;;12.72;100.00
3590;BME280;1809;48.470;9.226;2022-12-24T12:31:03;99352.13;;;12.58;100.00
3590;BME280;1809;48.470;9.226;2022-12-24T12:33:36;101761.88;;;12.60;100.00
3590;BME280;1809;48.470;9.226;2022-12-24T12:36:04;103145.34;;;12.65;100.00
3590;BME280;1809;48.470;9.226;2022-12-24T12:38:29;104531.31;;;12.70;100.00
3590;BME280;1809;48.470;9.226;2022-12-24T12:46:20;108289.66;;;12.53;100.00
3590;BME280;1809;48.470;9.226;2022-12-24T12:48:52;109343.06;;;12.64;100.00
3590;BME280;1809;48.470;9.226;2022-12-24T12:54:11;107973.56;;;12.69;100.00
3590;BME280;1809;48.470;9.226;2022-12-24T12:56:43;106925.09;;;12.61;100.00
3590;BME280;1809;48.470;9.226;2022-12-24T12:59:20;108999.31;;;12.65;100.00
3590;BME280;1809;48.470;9.226;2022-12-24T13:04:39;108639.53;;;12.56;100.00
3590;BME280;1809;48.470;9.226;2022-12-24T13:09:53;112088.66;;;12.57;100.00
3590;BME280;1809;48.470;9.226;2022-12-24T13:15:39;107608.69;;;12.58;100.00
3590;BME280;1809;48.470;9.226;2022-12-24T13:20:41;107985.97;;;12.76;100.00
3590;BME280;1809;48.470;9.226;2022-12-24T13:25:40;105214.66;;;12.67;100.00
3590;BME280;1809;48.470;9.226;2022-12-24T13:30:44;112424.31;;;12.52;100.00
3590;BME280;1809;48.470;9.226;2022-12-24T13:33:12;111403.50;;;12.60;100.00
3590;BME280;1809;48.470;9.226;2022-12-24T13:35:57;112748.88;;;12.41;100.00
3590;BME280;1809;48.470;9.226;2022-12-24T13:40:51;110351.88;;;12.50;100.00
3590;BME280;1809;48.470;9.226;2022-12-24T13:43:17;111044.97;;;12.52;100.00
3590;BME280;1809;48.470;9.226;2022-12-24T13:45:47;108643.09;;;12.58;100.00
3590;BME280;1809;48.470;9.226;2022-12-24T13:48:32;107607.81;;;12.57;100.00
3590;BME280;1809;48.470;9.226;2022-12-24T13:51:01;106562.31;;;12.50;100.00
3590;BME280;1809;48.470;9.226;2022-12-24T13:53:43;108280.78;;;12.48;100.00
3590;BME280;1809;48.470;9.226;2022-12-24T13:58:44;110009.00;;;12.51;100.00
3590;BME280;1809;48.470;9.226;2022-12-24T14:01:14;109653.56;;;12.45;100.00
3590;BME280;1809;48.470;9.226;2022-12-24T14:03:50;109667.97;;;12.53;100.00
3590;BME280;1809;48.470;9.226;2022-12-24T14:06:23;112091.41;;;12.59;100.00
3590;BME280;1809;48.470;9.226;2022-12-24T14:08:53;112428.03;;;12.54;100.00
3590;BME280;1809;48.470;9.226;2022-12-24T14:11:22;113098.41;;;12.44;100.00
3590;BME280;1809;48.470;9.226;2022-12-24T14:16:27;111030.38;;;12.44;100.00
3590;BME280;1809;48.470;9.226;2022-12-24T14:22:11;115127.84;;;12.22;100.00
3590;BME280;1809;48.470;9.226;2022-12-24T14:24:50;118567.88;;;12.16;100.00
3590;BME280;1809;48.470;9.226;2022-12-24T14:27:20;122689.78;;;12.04;100.00
3590;BME280;1809;48.470;9.226;2022-12-24T14:30:03;125778.13;;;11.92;100.00
3590;BME280;1809;48.470;9.226;2022-12-24T14:32:37;126819.03;;;11.94;100.00
3590;BME280;1809;48.470;9.226;2022-12-24T14:35:19;127852.97;;;11.92;100.00
3590;BME280;1809;48.470;9.226;2022-12-24T14:37:48;127513.22;;;11.95;100.00